Time;durP1;ratioP1;P1;durP2;ratioP2;P2;SDS_P1;SDS_P2;PMS_P1;PMS_P2;Temp;Humidity;BMP_temperature;BMP_pressure;BME280_temperature;BME280_humidity;BME280_pressure;Samples;Min_cycle;Max_cycle;Signal;HPM_P1;HPM_P2
2021/03/13 00:01:25;;;;;;;9.80;2.87;;;8.20;96.60;;;;;;5075042;28;20177;-83
2021/03/13 00:03:51;;;;;;;9.87;3.33;;;8.20;96.80;;;;;;5074802;28;20550;-79
2021/03/13 00:06:17;;;;;;;10.70;3.03;;;8.10;97.10;;;;;;5074666;28;20168;-80
2021/03/13 00:08:43;;;;;;;8.53;2.67;;;8.10;97.20;;;;;;5073737;28;20186;-80
2021/03/13 00:11:10;;;;;;;14.50;3.33;;;8.10;97.50;;;;;;5071836;28;20617;-84
2021/03/13 00:13:36;;;;;;;8.43;2.53;;;8.10;97.50;;;;;;5073843;28;20219;-83
2021/03/13 00:16:04;;;;;;;11.13;2.80;;;8.10;97.60;;;;;;5074288;28;20165;-79
2021/03/13 00:18:30;;;;;;;8.83;3.93;;;8.10;97.70;;;;;;5074737;28;20255;-82
2021/03/13 00:20:56;;;;;;;7.23;2.50;;;8.10;97.10;;;;;;5074160;28;20207;-82
2021/03/13 00:23:21;;;;;;;8.13;2.60;;;8.20;96.90;;;;;;5056972;28;20541;-77
2021/03/13 00:25:47;;;;;;;10.20;3.43;;;8.20;96.90;;;;;;5074503;28;20157;-85
2021/03/13 00:28:13;;;;;;;9.33;2.33;;;8.20;96.60;;;;;;5074223;28;20195;-79
2021/03/13 00:30:42;;;;;;;10.47;2.70;;;8.10;97.10;;;;;;5073916;28;20241;-79
2021/03/13 00:33:19;;;;;;;8.60;2.70;;;8.10;97.70;;;;;;5074542;28;20204;-84
2021/03/13 00:35:48;;;;;;;10.00;2.63;;;8.10;97.80;;;;;;5074133;28;20233;-80
2021/03/13 00:38:13;;;;;;;14.57;3.00;;;8.10;97.40;;;;;;5074659;28;20168;-85
2021/03/13 00:40:42;;;;;;;12.40;2.90;;;8.10;97.50;;;;;;5074737;28;20221;-82
2021/03/13 00:43:09;;;;;;;6.13;2.27;;;8.10;97.50;;;;;;5074801;28;20185;-85
2021/03/13 00:45:35;;;;;;;8.23;2.70;;;8.20;96.90;;;;;;5074454;28;20187;-83
2021/03/13 00:48:01;;;;;;;8.43;2.70;;;8.20;96.50;;;;;;5073692;28;20628;-84
2021/03/13 00:50:29;;;;;;;13.17;2.80;;;8.20;96.30;;;;;;5074105;28;20717;-86
2021/03/13 00:52:55;;;;;;;8.93;2.23;;;8.20;96.40;;;;;;5074593;28;20204;-84
2021/03/13 00:55:21;;;;;;;8.50;2.20;;;8.20;96.60;;;;;;5074548;28;20260;-78
2021/03/13 00:57:47;;;;;;;11.90;2.50;;;8.20;95.80;;;;;;5074332;28;20252;-80
2021/03/13 01:00:17;;;;;;;5.27;2.00;;;8.30;95.10;;;;;;5074256;28;20271;-83
2021/03/13 01:02:42;;;;;;;7.87;2.10;;;8.30;93.70;;;;;;5074070;28;20561;-84
2021/03/13 01:05:10;;;;;;;9.30;1.90;;;8.30;93.30;;;;;;5073833;28;20259;-81
2021/03/13 01:07:37;;;;;;;7.33;2.23;;;8.30;93.20;;;;;;5073848;28;20659;-79
2021/03/13 01:10:28;;;;;;;5.57;1.90;;;8.30;92.20;;;;;;5073815;28;20203;-84
2021/03/13 01:12:55;;;;;;;7.33;1.97;;;8.40;91.80;;;;;;5073545;28;20196;-84
2021/03/13 01:15:22;;;;;;;7.13;2.17;;;8.40;91.40;;;;;;5073772;28;20225;-78
2021/03/13 01:17:48;;;;;;;8.33;2.20;;;8.40;92.60;;;;;;5055993;28;20644;-84
2021/03/13 01:20:16;;;;;;;7.53;2.20;;;8.50;92.10;;;;;;5073545;28;20169;-76
2021/03/13 01:22:42;;;;;;;5.23;1.80;;;8.40;92.90;;;;;;5073769;28;20727;-77
2021/03/13 01:25:09;;;;;;;5.77;1.90;;;8.40;93.80;;;;;;5074060;28;20234;-76
2021/03/13 01:27:35;;;;;;;5.23;1.60;;;8.40;93.70;;;;;;5073511;28;20573;-84
2021/03/13 01:30:01;;;;;;;7.40;1.93;;;8.50;93.60;;;;;;5073392;28;20215;-81
2021/03/13 01:32:26;;;;;;;8.47;1.90;;;8.60;93.30;;;;;;5073526;28;20660;-83
2021/03/13 01:34:52;;;;;;;9.33;2.20;;;8.50;93.70;;;;;;5073145;28;20581;-83
2021/03/13 01:37:20;;;;;;;7.97;1.67;;;8.40;94.40;;;;;;5073420;28;20164;-78
2021/03/13 01:39:46;;;;;;;7.33;1.80;;;8.30;94.60;;;;;;5073534;28;20263;-82
2021/03/13 01:42:12;;;;;;;5.23;2.03;;;8.40;94.30;;;;;;5073379;28;20306;-80
2021/03/13 01:44:38;;;;;;;4.73;1.50;;;8.40;94.40;;;;;;5073444;28;20259;-81
2021/03/13 01:47:04;;;;;;;5.70;1.63;;;8.50;94.00;;;;;;5073455;28;20169;-83
2021/03/13 01:49:31;;;;;;;5.03;1.83;;;8.50;93.60;;;;;;5072877;28;20192;-81
2021/03/13 01:51:58;;;;;;;8.20;1.80;;;8.50;93.60;;;;;;5073774;28;20191;-83
2021/03/13 01:54:25;;;;;;;6.43;1.70;;;8.50;94.00;;;;;;5073695;28;20188;-84
2021/03/13 01:56:51;;;;;;;4.80;1.60;;;8.60;93.90;;;;;;5073471;28;20192;-84
2021/03/13 01:59:18;;;;;;;6.63;2.07;;;8.60;93.70;;;;;;5073965;28;20281;-77
2021/03/13 02:01:45;;;;;;;6.03;2.10;;;8.70;94.10;;;;;;5073289;28;20176;-84
2021/03/13 02:04:18;;;;;;;4.03;2.20;;;8.60;95.20;;;;;;5055027;28;20223;-82
2021/03/13 02:06:56;;;;;;;10.23;2.40;;;8.60;94.90;;;;;;5073626;28;20214;-84
2021/03/13 02:09:34;;;;;;;8.47;2.20;;;8.70;94.30;;;;;;5055142;28;20176;-77
2021/03/13 02:12:09;;;;;;;13.13;2.67;;;8.70;94.60;;;;;;5073200;28;20628;-85
2021/03/13 02:14:34;;;;;;;8.07;2.17;;;8.70;94.80;;;;;;5055282;28;20275;-82
2021/03/13 02:17:03;;;;;;;8.47;2.20;;;8.70;94.90;;;;;;5073033;28;20243;-84
2021/03/13 02:20:06;;;;;;;10.30;2.20;;;8.70;94.80;;;;;;5072955;28;20164;-82
2021/03/13 02:22:37;;;;;;;10.57;2.53;;;8.80;94.80;;;;;;5072962;28;20175;-83
2021/03/13 02:25:33;;;;;;;9.07;2.27;;;8.80;94.80;;;;;;5055064;28;20253;-81
2021/03/13 02:28:17;;;;;;;9.67;2.43;;;9.00;92.60;;;;;;5073042;28;20190;-81
2021/03/13 02:30:44;;;;;;;10.50;2.40;;;8.90;93.40;;;;;;5073040;28;20167;-84
2021/03/13 02:33:33;;;;;;;10.00;2.53;;;8.90;94.40;;;;;;5075283;28;20238;-82
2021/03/13 02:36:01;;;;;;;11.40;2.77;;;8.90;95.50;;;;;;5077022;28;20674;-78
2021/03/13 02:38:29;;;;;;;10.27;2.60;;;8.80;95.70;;;;;;5073118;28;20656;-84
2021/03/13 02:40:59;;;;;;;9.93;2.07;;;8.80;95.70;;;;;;5055140;28;20164;-80
2021/03/13 02:43:29;;;;;;;9.80;3.03;;;8.80;96.30;;;;;;5073187;28;20206;-83
2021/03/13 02:45:58;;;;;;;8.90;2.13;;;8.80;96.80;;;;;;5072581;28;20164;-84
2021/03/13 02:48:25;;;;;;;8.77;2.23;;;8.80;97.40;;;;;;5054849;28;20191;-84
2021/03/13 02:50:52;;;;;;;7.50;2.37;;;8.80;97.30;;;;;;5072969;28;20200;-83
2021/03/13 02:53:19;;;;;;;11.20;3.17;;;8.70;97.50;;;;;;5054963;28;20652;-82
2021/03/13 02:55:47;;;;;;;12.10;2.60;;;8.70;97.80;;;;;;5072701;28;20238;-82
2021/03/13 02:58:13;;;;;;;14.00;3.90;;;8.70;98.40;;;;;;5072843;28;20172;-83
2021/03/13 03:00:42;;;;;;;7.73;2.47;;;8.70;99.00;;;;;;5056086;28;20180;-81
2021/03/13 03:03:09;;;;;;;12.37;3.33;;;8.60;99.40;;;;;;5057299;28;20267;-81
2021/03/13 03:05:37;;;;;;;10.20;2.60;;;8.60;99.90;;;;;;5073948;28;20574;-84
2021/03/13 03:08:06;;;;;;;10.93;3.20;;;8.60;99.90;;;;;;5054989;28;20218;-76
2021/03/13 03:10:39;;;;;;;7.20;2.50;;;8.60;99.90;;;;;;5074855;28;20169;-79
2021/03/13 03:13:07;;;;;;;8.27;2.70;;;8.60;99.90;;;;;;5058409;28;20218;-80
2021/03/13 03:15:34;;;;;;;11.37;2.93;;;8.60;99.90;;;;;;5076079;28;20153;-83
2021/03/13 03:18:11;;;;;;;9.10;3.10;;;8.50;99.90;;;;;;5058350;28;20259;-80
2021/03/13 03:20:37;;;;;;;9.80;3.23;;;8.50;99.90;;;;;;5076190;28;20160;-82
2021/03/13 03:23:05;;;;;;;9.93;2.97;;;8.50;99.90;;;;;;5058510;28;20179;-85
2021/03/13 03:25:31;;;;;;;7.13;2.70;;;8.50;99.90;;;;;;5075918;28;20191;-83
2021/03/13 03:27:56;;;;;;;9.80;2.70;;;8.50;99.90;;;;;;5058185;28;20652;-83
2021/03/13 03:30:22;;;;;;;5.03;2.30;;;8.50;99.90;;;;;;5075540;28;20182;-81
2021/03/13 03:32:48;;;;;;;6.17;2.37;;;8.60;99.90;;;;;;5075990;28;20204;-79
2021/03/13 03:35:15;;;;;;;9.03;2.30;;;8.60;99.90;;;;;;5075572;28;20264;-79
2021/03/13 03:37:41;;;;;;;9.57;2.70;;;8.60;99.70;;;;;;5075909;28;20184;-83
2021/03/13 03:40:09;;;;;;;10.37;2.97;;;8.70;99.00;;;;;;5075975;28;20251;-81
2021/03/13 03:42:38;;;;;;;6.97;2.07;;;8.70;98.00;;;;;;5075868;28;20173;-84
2021/03/13 03:45:04;;;;;;;6.90;2.57;;;8.70;98.20;;;;;;5057590;28;20181;-84
2021/03/13 03:47:31;;;;;;;8.47;2.30;;;8.80;97.90;;;;;;5057758;28;20184;-78
2021/03/13 03:49:57;;;;;;;9.40;2.63;;;8.80;97.30;;;;;;5075686;28;20188;-77
2021/03/13 03:52:24;;;;;;;7.57;2.60;;;8.80;96.90;;;;;;5075551;28;20606;-81
2021/03/13 03:54:50;;;;;;;7.67;1.97;;;8.80;96.90;;;;;;5075781;28;20219;-82
2021/03/13 03:57:17;;;;;;;7.10;1.90;;;8.80;95.80;;;;;;5075539;28;20633;-83
2021/03/13 03:59:44;;;;;;;5.80;1.83;;;9.00;93.70;;;;;;5075388;28;20251;-83
2021/03/13 04:02:10;;;;;;;7.90;2.10;;;9.00;93.40;;;;;;5075498;28;20187;-82
2021/03/13 04:04:37;;;;;;;5.03;1.60;;;9.00;93.50;;;;;;5075731;28;20188;-83
2021/03/13 04:07:04;;;;;;;5.53;1.60;;;9.00;92.90;;;;;;5075433;28;20225;-84
2021/03/13 04:09:31;;;;;;;9.97;2.53;;;9.00;92.90;;;;;;5075333;28;20164;-85
2021/03/13 04:11:57;;;;;;;5.17;2.00;;;9.00;92.00;;;;;;5056908;28;20194;-80
2021/03/13 04:14:24;;;;;;;3.83;1.50;;;8.90;92.20;;;;;;5075081;28;20196;-77
2021/03/13 04:16:50;;;;;;;9.20;2.60;;;8.90;91.90;;;;;;5057372;28;20218;-82
2021/03/13 04:19:16;;;;;;;5.53;2.40;;;9.00;91.70;;;;;;5057212;28;20179;-84
2021/03/13 04:21:42;;;;;;;9.03;2.57;;;9.10;90.80;;;;;;5074070;28;20214;-84
2021/03/13 04:24:11;;;;;;;6.93;2.60;;;9.00;90.50;;;;;;5075651;28;20168;-85
2021/03/13 04:26:38;;;;;;;8.67;2.30;;;9.10;90.20;;;;;;5074865;28;20168;-83
2021/03/13 04:29:03;;;;;;;7.77;2.60;;;9.10;90.70;;;;;;5074590;28;20260;-84
2021/03/13 04:31:31;;;;;;;9.67;2.47;;;9.10;90.90;;;;;;5074705;28;20234;-82
2021/03/13 04:34:01;;;;;;;8.80;2.47;;;9.00;91.20;;;;;;5074796;28;20203;-84
2021/03/13 04:36:28;;;;;;;8.13;2.20;;;9.20;91.30;;;;;;5074515;28;20529;-85
2021/03/13 04:38:57;;;;;;;8.53;2.83;;;9.10;91.00;;;;;;5074849;28;20624;-84
2021/03/13 04:41:24;;;;;;;8.90;2.47;;;9.10;91.00;;;;;;5056615;28;20175;-79
2021/03/13 04:43:51;;;;;;;9.23;3.03;;;9.10;89.90;;;;;;5074426;28;20213;-84
2021/03/13 04:46:18;;;;;;;9.53;2.40;;;9.20;88.50;;;;;;5074557;28;20176;-84
2021/03/13 04:48:44;;;;;;;9.73;3.03;;;9.20;87.40;;;;;;5074509;28;20648;-84
2021/03/13 04:51:10;;;;;;;11.47;2.50;;;9.30;84.30;;;;;;5074311;28;20194;-85
2021/03/13 04:53:36;;;;;;;12.87;3.13;;;9.20;82.40;;;;;;5074394;28;20208;-81
2021/03/13 04:56:02;;;;;;;10.07;2.63;;;9.30;78.80;;;;;;5075828;28;20688;-84
2021/03/13 04:58:29;;;;;;;7.47;2.57;;;9.30;75.80;;;;;;5075332;28;20179;-80
2021/03/13 05:00:55;;;;;;;7.27;2.30;;;9.30;77.20;;;;;;5074821;28;20176;-84
2021/03/13 05:03:22;;;;;;;7.17;2.60;;;9.30;76.60;;;;;;5074740;28;20180;-80
2021/03/13 05:05:47;;;;;;;10.37;2.50;;;9.30;74.40;;;;;;5074812;28;20342;-84
2021/03/13 05:08:13;;;;;;;9.77;2.37;;;9.30;72.50;;;;;;5075023;28;20640;-79
2021/03/13 05:10:39;;;;;;;6.17;2.07;;;9.40;72.10;;;;;;5074412;28;20168;-86
2021/03/13 05:13:04;;;;;;;9.23;1.90;;;9.40;71.00;;;;;;5073726;28;20204;-86
2021/03/13 05:15:30;;;;;;;8.13;3.07;;;9.40;67.00;;;;;;5074449;28;20221;-85
2021/03/13 05:18:10;;;;;;;6.60;2.03;;;9.40;68.00;;;;;;5074141;28;20172;-84
2021/03/13 05:20:35;;;;;;;8.97;2.30;;;9.40;65.30;;;;;;5074111;28;20175;-84
2021/03/13 05:23:01;;;;;;;5.10;1.97;;;9.40;67.20;;;;;;5074342;28;20466;-84
2021/03/13 05:25:27;;;;;;;7.03;2.73;;;9.30;74.10;;;;;;5074435;28;20602;-87
2021/03/13 05:27:52;;;;;;;8.77;2.03;;;9.30;77.80;;;;;;5074614;28;20172;-81
2021/03/13 05:30:19;;;;;;;8.70;2.23;;;9.30;81.00;;;;;;5073322;28;20168;-82
2021/03/13 05:32:44;;;;;;;6.10;1.87;;;9.30;86.10;;;;;;5055506;28;20204;-82
2021/03/13 05:35:11;;;;;;;5.13;1.80;;;9.10;91.10;;;;;;5073965;28;20169;-85
2021/03/13 05:37:38;;;;;;;7.73;2.10;;;9.00;93.90;;;;;;5073825;28;20505;-86
2021/03/13 05:40:06;;;;;;;6.80;1.97;;;8.80;96.90;;;;;;5073722;28;20200;-85
2021/03/13 05:42:36;;;;;;;3.47;1.20;;;8.50;97.80;;;;;;5074445;28;20214;-82
2021/03/13 05:45:03;;;;;;;3.57;1.13;;;8.30;94.20;;;;;;5056903;28;20636;-83
2021/03/13 05:47:30;;;;;;;4.80;1.20;;;8.20;91.10;;;;;;5056199;28;20263;-86
2021/03/13 05:50:18;;;;;;;2.23;0.83;;;8.20;81.60;;;;;;5073933;28;20227;-86
2021/03/13 05:52:48;;;;;;;4.17;0.93;;;8.20;67.80;;;;;;5055796;28;20215;-84
2021/03/13 05:55:17;;;;;;;3.37;0.80;;;8.30;54.90;;;;;;5055415;28;20236;-84
2021/03/13 05:57:43;;;;;;;2.07;0.83;;;8.30;47.20;;;;;;5073297;28;20259;-85
2021/03/13 06:00:18;;;;;;;1.47;0.70;;;8.30;43.20;;;;;;5073425;28;20222;-83
2021/03/13 06:02:44;;;;;;;3.23;0.80;;;8.20;37.20;;;;;;5073391;28;20176;-84
2021/03/13 06:05:11;;;;;;;1.80;0.80;;;8.30;35.60;;;;;;5073685;28;20683;-79
2021/03/13 06:07:38;;;;;;;2.40;0.80;;;8.30;22.30;;;;;;5055299;28;20201;-80
2021/03/13 06:10:07;;;;;;;3.70;1.00;;;8.40;21.60;;;;;;5072995;28;20214;-86
2021/03/13 06:12:33;;;;;;;0.80;0.80;;;8.30;21.90;;;;;;5055314;28;20204;-85
2021/03/13 06:14:59;;;;;;;2.00;0.80;;;8.30;17.10;;;;;;5073276;28;20176;-82
2021/03/13 06:17:25;;;;;;;2.00;0.70;;;8.40;20.70;;;;;;5055180;28;20177;-84
2021/03/13 06:19:58;;;;;;;2.63;0.83;;;8.40;20.80;;;;;;5072801;28;20585;-81
2021/03/13 06:22:42;;;;;;;4.53;0.90;;;8.40;16.50;;;;;;5073444;28;20220;-85
2021/03/13 06:25:13;;;;;;;2.10;0.60;;;8.40;19.50;;;;;;5056747;28;20207;-81
2021/03/13 06:27:44;;;;;;;1.63;0.60;;;8.30;20.30;;;;;;5075405;28;20179;-83
2021/03/13 06:30:12;;;;;;;1.53;0.80;;;8.40;18.60;;;;;;5072946;28;20700;-84
2021/03/13 06:32:42;;;;;;;1.17;0.63;;;8.40;20.00;;;;;;5073166;28;20216;-87
2021/03/13 06:35:28;;;;;;;2.67;1.00;;;8.30;20.10;;;;;;5072855;28;20173;-84
2021/03/13 06:37:58;;;;;;;2.70;1.00;;;8.30;18.80;;;;;;5072596;28;20190;-84
2021/03/13 06:40:35;;;;;;;2.87;0.97;;;8.30;18.10;;;;;;5072812;28;20176;-81
2021/03/13 06:43:18;;;;;;;2.37;1.20;;;8.20;17.00;;;;;;5073224;28;20631;-79
2021/03/13 06:45:53;;;;;;;3.83;0.93;;;8.30;12.90;;;;;;5075833;28;20203;-83
2021/03/13 06:48:29;;;;;;;4.23;1.23;;;8.20;9.50;;;;;;5060322;28;20202;-82
2021/03/13 06:51:15;;;;;;;4.97;1.40;;;8.20;8.70;;;;;;5076808;28;20206;-82
2021/03/13 06:53:42;;;;;;;2.50;1.40;;;8.30;5.70;;;;;;5077417;28;20208;-78
2021/03/13 06:56:12;;;;;;;10.60;1.63;;;8.30;6.20;;;;;;5059147;28;20625;-84
2021/03/13 06:58:38;;;;;;;1.93;1.07;;;8.30;7.80;;;;;;5058459;28;20226;-85
2021/03/13 07:01:06;;;;;;;5.87;1.07;;;8.20;7.10;;;;;;5076359;28;20175;-83
2021/03/13 07:03:33;;;;;;;2.33;0.90;;;8.20;10.70;;;;;;5076607;28;20200;-84
2021/03/13 07:05:59;;;;;;;4.67;1.40;;;8.30;7.80;;;;;;5076362;28;20247;-84
2021/03/13 07:08:28;;;;;;;4.37;1.20;;;8.40;11.90;;;;;;5076367;28;20175;-84
2021/03/13 07:11:13;;;;;;;2.80;1.13;;;8.30;19.40;;;;;;5076151;28;20679;-79
2021/03/13 07:13:45;;;;;;;2.57;1.10;;;8.10;21.80;;;;;;5076298;28;20257;-81
2021/03/13 07:16:24;;;;;;;3.87;1.00;;;8.20;24.00;;;;;;5076396;28;20549;-80
2021/03/13 07:18:51;;;;;;;3.70;1.00;;;8.20;21.40;;;;;;5058390;28;20176;-80
2021/03/13 07:21:19;;;;;;;3.30;0.87;;;8.30;21.00;;;;;;5057445;28;20168;-85
2021/03/13 07:23:51;;;;;;;4.67;1.23;;;8.20;17.30;;;;;;5075691;28;20160;-83
2021/03/13 07:26:17;;;;;;;3.00;1.00;;;8.20;17.90;;;;;;5057904;28;20190;-84
2021/03/13 07:28:44;;;;;;;2.70;0.90;;;8.20;19.60;;;;;;5057925;28;20529;-84
2021/03/13 07:31:11;;;;;;;4.17;0.90;;;8.20;19.30;;;;;;5075034;28;20192;-78
2021/03/13 07:33:40;;;;;;;4.60;1.13;;;8.10;23.90;;;;;;5075287;28;20295;-81
2021/03/13 07:36:12;;;;;;;3.57;1.10;;;8.10;24.90;;;;;;5075252;28;20218;-81
2021/03/13 07:38:40;;;;;;;10.47;1.53;;;8.20;19.80;;;;;;5075449;28;20171;-82
2021/03/13 07:41:09;;;;;;;7.07;1.33;;;8.20;23.20;;;;;;5075117;28;20164;-80
2021/03/13 07:43:36;;;;;;;3.87;1.20;;;8.20;23.90;;;;;;5075544;28;20172;-82
2021/03/13 07:46:02;;;;;;;3.93;1.20;;;8.20;26.10;;;;;;5075759;28;20216;-81
2021/03/13 07:48:28;;;;;;;3.57;1.03;;;8.10;34.70;;;;;;5075501;28;20218;-86
2021/03/13 07:50:55;;;;;;;6.97;1.73;;;8.10;39.90;;;;;;5075416;28;20712;-84
2021/03/13 07:53:22;;;;;;;5.50;1.27;;;8.10;45.40;;;;;;5075550;28;20279;-80
2021/03/13 07:55:51;;;;;;;5.87;1.33;;;8.00;48.90;;;;;;5075325;28;20179;-90
2021/03/13 07:58:20;;;;;;;4.63;1.77;;;8.10;48.80;;;;;;5077292;28;20164;-79
2021/03/13 08:00:47;;;;;;;4.33;1.33;;;8.10;49.90;;;;;;5059471;28;20254;-87
2021/03/13 08:03:34;;;;;;;4.53;1.33;;;8.10;51.60;;;;;;5077312;28;20593;-87
2021/03/13 08:06:01;;;;;;;7.27;2.17;;;8.10;49.70;;;;;;5045843;28;20517;-90
2021/03/13 08:08:47;;;;;;;9.50;2.00;;;8.20;41.70;;;;;;5075752;28;20169;-85
2021/03/13 08:11:20;;;;;;;6.17;1.97;;;8.20;33.50;;;;;;5076378;28;20249;-86
2021/03/13 08:13:51;;;;;;;11.90;2.30;;;8.30;25.70;;;;;;5075787;28;20236;-86
2021/03/13 08:16:30;;;;;;;5.83;1.87;;;8.30;9.80;;;;;;5057945;28;20168;-88
2021/03/13 08:18:57;;;;;;;10.73;2.17;;;8.40;1.00;;;;;;5058718;28;20626;-83
2021/03/13 08:21:23;;;;;;;5.90;2.30;;;8.50;1.00;;;;;;5074637;28;20161;-87
2021/03/13 08:23:58;;;;;;;8.17;3.13;;;8.50;1.00;;;;;;5075029;28;20156;-85
2021/03/13 08:26:33;;;;;;;11.63;3.13;;;8.50;1.00;;;;;;5056925;28;20541;-78
2021/03/13 08:28:59;;;;;;;9.47;2.23;;;8.50;1.00;;;;;;5074393;28;20160;-83
2021/03/13 08:31:25;;;;;;;8.97;2.73;;;8.60;1.00;;;;;;5055314;28;20172;-83
2021/03/13 08:33:55;;;;;;;8.67;2.50;;;8.70;1.00;;;;;;5055326;28;20301;-85
2021/03/13 08:36:26;;;;;;;8.23;2.37;;;8.70;1.00;;;;;;5055577;28;20673;-83
2021/03/13 08:38:57;;;;;;;10.43;2.07;;;8.70;1.00;;;;;;5056224;28;20237;-79
2021/03/13 08:41:43;;;;;;;10.33;2.63;;;8.70;1.00;;;;;;5073685;28;20165;-80
2021/03/13 08:44:15;;;;;;;12.30;2.73;;;8.80;1.00;;;;;;5074199;28;20219;-78
2021/03/13 08:46:44;;;;;;;8.80;2.20;;;8.80;1.00;;;;;;5056070;28;20184;-79
2021/03/13 08:49:34;;;;;;;10.43;2.47;;;8.80;1.00;;;;;;5073669;28;20187;-83
2021/03/13 08:52:09;;;;;;;10.23;2.10;;;8.80;1.00;;;;;;5055735;28;20278;-78
2021/03/13 08:54:41;;;;;;;11.27;3.03;;;8.70;1.00;;;;;;5073878;28;20217;-79
2021/03/13 08:57:07;;;;;;;12.70;2.50;;;8.70;1.00;;;;;;5055374;28;20176;-81
2021/03/13 08:59:33;;;;;;;11.70;2.77;;;8.70;1.00;;;;;;5055441;28;20531;-82
2021/03/13 09:02:02;;;;;;;13.80;2.73;;;8.70;1.00;;;;;;5073789;28;20585;-84
2021/03/13 09:04:29;;;;;;;13.57;2.83;;;8.60;1.00;;;;;;5055950;28;20628;-85
2021/03/13 09:06:56;;;;;;;13.93;3.77;;;8.40;4.50;;;;;;5075483;28;20196;-85
2021/03/13 09:09:25;;;;;;;10.63;3.53;;;8.20;13.80;;;;;;5074957;28;20176;-85
2021/03/13 09:11:59;;;;;;;11.07;3.60;;;8.30;10.10;;;;;;5073739;28;20706;-80
2021/03/13 09:14:26;;;;;;;12.00;3.00;;;8.30;1.00;;;;;;5073366;28;20172;-80
2021/03/13 09:16:52;;;;;;;11.40;3.30;;;8.30;1.00;;;;;;5072928;28;20266;-79
2021/03/13 09:19:18;;;;;;;11.00;2.77;;;8.40;1.00;;;;;;5072693;28;20173;-81
2021/03/13 09:21:55;;;;;;;14.10;3.47;;;8.60;1.00;;;;;;5073234;28;20255;-87
2021/03/13 09:24:22;;;;;;;14.07;3.27;;;8.50;1.00;;;;;;5073255;28;20251;-81
2021/03/13 09:26:55;;;;;;;15.77;3.47;;;8.50;1.00;;;;;;5073522;28;20165;-87
2021/03/13 09:29:35;;;;;;;13.40;3.93;;;8.70;1.00;;;;;;5073544;28;20651;-87
2021/03/13 09:32:03;;;;;;;15.47;3.97;;;8.90;1.00;;;;;;5072938;28;20637;-84
2021/03/13 09:34:31;;;;;;;12.03;2.83;;;9.00;1.00;;;;;;5055063;28;20276;-79
2021/03/13 09:36:57;;;;;;;15.33;3.80;;;9.10;1.00;;;;;;5055341;28;20170;-82
2021/03/13 09:39:27;;;;;;;10.77;3.43;;;9.20;1.00;;;;;;5073060;28;20204;-81
2021/03/13 09:42:01;;;;;;;9.27;2.77;;;9.20;1.00;;;;;;5073105;28;20628;-84
2021/03/13 09:44:35;;;;;;;10.10;2.77;;;9.30;1.00;;;;;;5072814;28;20161;-81
2021/03/13 09:47:08;;;;;;;16.27;2.73;;;9.30;1.00;;;;;;5054445;28;20175;-84
2021/03/13 09:49:34;;;;;;;10.97;3.90;;;9.30;1.00;;;;;;5073129;28;20181;-86
2021/03/13 09:52:00;;;;;;;14.00;2.67;;;9.50;1.00;;;;;;5072761;28;20188;-80
2021/03/13 09:54:26;;;;;;;11.03;3.10;;;9.30;1.00;;;;;;5072759;28;20187;-88
2021/03/13 09:56:51;;;;;;;15.77;3.73;;;9.40;1.00;;;;;;5073164;28;20173;-80
2021/03/13 09:59:18;;;;;;;18.10;4.33;;;9.50;1.00;;;;;;5072633;28;20180;-80
2021/03/13 10:01:44;;;;;;;21.63;3.87;;;9.50;1.00;;;;;;5072434;28;20250;-87
2021/03/13 10:04:10;;;;;;;16.27;3.93;;;9.50;1.00;;;;;;5072455;28;20173;-80
2021/03/13 10:06:36;;;;;;;7.23;2.63;;;9.60;1.00;;;;;;5072348;28;20172;-79
2021/03/13 10:09:02;;;;;;;11.47;2.73;;;9.60;1.00;;;;;;5073064;28;20179;-85
2021/03/13 10:11:44;;;;;;;11.97;3.07;;;9.60;1.00;;;;;;5072976;28;20172;-79
2021/03/13 10:14:21;;;;;;;10.83;3.10;;;9.40;1.00;;;;;;5072472;28;20208;-80
2021/03/13 10:16:47;;;;;;;14.77;3.40;;;9.30;1.00;;;;;;5053894;28;20171;-77
2021/03/13 10:19:42;;;;;;;14.93;4.03;;;9.50;1.00;;;;;;5073954;28;20222;-78
2021/03/13 10:22:10;;;;;;;12.93;3.13;;;9.50;1.00;;;;;;5041259;28;20226;-83
2021/03/13 10:24:50;;;;;;;15.73;3.97;;;9.60;1.00;;;;;;5076771;28;20628;-85
2021/03/13 10:27:25;;;;;;;12.93;3.80;;;9.60;1.00;;;;;;5076726;28;20179;-79
2021/03/13 10:30:01;;;;;;;11.40;3.50;;;9.50;1.00;;;;;;5076329;28;20260;-78
2021/03/13 10:32:30;;;;;;;18.33;4.20;;;9.70;1.00;;;;;;5076377;28;20196;-80
2021/03/13 10:35:05;;;;;;;14.27;3.57;;;10.00;1.00;;;;;;5078319;28;20306;-83
2021/03/13 10:37:42;;;;;;;9.87;3.47;;;10.00;99.90;;;;;;5077222;28;20167;-78
2021/03/13 10:40:10;;;;;;;23.23;4.70;;;9.90;99.90;;;;;;5059068;28;20642;-79
2021/03/13 10:42:36;;;;;;;14.07;3.03;;;9.90;1.00;;;;;;5076109;28;20624;-86
2021/03/13 10:45:18;;;;;;;16.47;4.03;;;9.90;1.00;;;;;;5075470;28;20270;-78
2021/03/13 10:47:45;;;;;;;13.00;3.83;;;9.60;1.00;;;;;;5075846;28;20180;-78
2021/03/13 10:50:14;;;;;;;11.33;3.57;;;9.30;1.00;;;;;;5076062;28;20307;-78
2021/03/13 10:52:41;;;;;;;10.90;2.97;;;8.90;1.00;;;;;;5076000;28;20187;-88
2021/03/13 10:55:08;;;;;;;13.80;3.97;;;8.20;5.40;;;;;;5075850;28;20172;-81
2021/03/13 10:57:35;;;;;;;13.23;3.63;;;8.00;25.40;;;;;;5075884;28;20244;-83
2021/03/13 11:00:01;;;;;;;10.87;3.07;;;8.20;27.80;;;;;;5077081;28;20153;-79
2021/03/13 11:02:26;;;;;;;12.50;3.23;;;8.50;19.40;;;;;;5075448;28;20176;-84
2021/03/13 11:04:52;;;;;;;14.93;3.00;;;8.70;6.70;;;;;;5075769;28;20570;-80
2021/03/13 11:07:17;;;;;;;11.00;4.03;;;8.80;1.00;;;;;;5058027;28;20180;-78
2021/03/13 11:09:47;;;;;;;11.30;3.37;;;8.90;1.00;;;;;;5075629;28;20176;-78
2021/03/13 11:12:13;;;;;;;15.50;3.63;;;9.00;1.00;;;;;;5074990;28;20215;-79
2021/03/13 11:14:39;;;;;;;11.90;3.47;;;9.30;1.00;;;;;;5074831;28;20181;-81
2021/03/13 11:17:05;;;;;;;11.90;3.50;;;9.50;1.00;;;;;;5075209;28;20168;-79
2021/03/13 11:19:31;;;;;;;8.87;2.83;;;9.50;1.00;;;;;;5075070;28;20624;-84
2021/03/13 11:21:58;;;;;;;14.90;3.93;;;9.60;1.00;;;;;;5075249;28;20180;-80
2021/03/13 11:24:24;;;;;;;16.07;4.20;;;9.70;1.00;;;;;;5058097;28;20179;-84
2021/03/13 11:26:49;;;;;;;10.40;2.90;;;9.90;1.00;;;;;;5075072;28;20168;-80
2021/03/13 11:29:17;;;;;;;11.97;2.70;;;10.10;99.90;;;;;;5074879;28;20380;-81
2021/03/13 11:31:44;;;;;;;9.63;2.80;;;10.30;56.80;;;;;;5074642;28;20612;-78
2021/03/13 11:34:09;;;;;;;14.37;3.23;;;10.40;1.00;;;;;;5074585;28;20714;-79
2021/03/13 11:36:35;;;;;;;11.53;3.10;;;10.40;1.00;;;;;;5075058;28;20194;-79
2021/03/13 11:39:01;;;;;;;8.80;2.87;;;10.40;1.00;;;;;;5075040;28;20173;-82
2021/03/13 11:41:26;;;;;;;11.47;3.07;;;10.30;99.90;;;;;;5074870;28;20259;-76
2021/03/13 11:43:52;;;;;;;9.43;3.03;;;10.40;1.00;;;;;;5074784;28;20172;-78
2021/03/13 11:46:18;;;;;;;15.37;3.40;;;10.40;1.00;;;;;;5074620;28;20184;-83
2021/03/13 11:48:44;;;;;;;12.07;3.23;;;10.30;99.90;;;;;;5075174;28;20192;-84
2021/03/13 11:51:10;;;;;;;11.67;3.43;;;10.30;1.00;;;;;;5074758;28;20660;-82
2021/03/13 11:53:36;;;;;;;18.03;4.23;;;10.30;1.00;;;;;;5074711;28;20208;-81
2021/03/13 11:56:03;;;;;;;13.27;3.60;;;10.40;1.00;;;;;;5074037;28;20656;-83
2021/03/13 11:58:28;;;;;;;10.67;2.93;;;10.40;1.00;;;;;;5074663;28;20195;-83
2021/03/13 12:00:54;;;;;;;10.67;2.93;;;10.40;1.00;;;;;;5075682;28;20628;-78
2021/03/13 12:03:20;;;;;;;11.03;3.23;;;10.40;1.00;;;;;;5059862;28;20199;-79
2021/03/13 12:05:45;;;;;;;8.70;3.00;;;10.50;1.00;;;;;;5075252;28;20263;-79
2021/03/13 12:08:11;;;;;;;16.27;3.83;;;10.60;69.40;;;;;;5076809;28;20184;-82
2021/03/13 12:10:38;;;;;;;10.83;3.00;;;10.80;99.90;;;;;;5058082;28;20516;-81
2021/03/13 12:13:03;;;;;;;11.27;3.10;;;10.80;99.90;;;;;;5074458;28;20200;-79
2021/03/13 12:15:29;;;;;;;10.70;2.57;;;10.70;99.90;;;;;;5071672;28;20177;-84
2021/03/13 12:17:55;;;;;;;9.33;3.07;;;10.80;1.00;;;;;;5071103;28;20610;-78
2021/03/13 12:20:21;;;;;;;11.43;3.10;;;10.60;1.00;;;;;;5072622;28;20709;-77
2021/03/13 12:22:48;;;;;;;9.53;2.70;;;10.60;99.90;;;;;;5073539;28;20244;-78
2021/03/13 12:25:14;;;;;;;10.03;2.67;;;10.50;99.90;;;;;;5072722;28;20168;-80
2021/03/13 12:27:40;;;;;;;9.47;3.10;;;10.40;1.00;;;;;;5056415;28;20164;-77
2021/03/13 12:30:11;;;;;;;11.77;2.70;;;10.50;99.90;;;;;;5072495;28;20175;-78
2021/03/13 12:32:37;;;;;;;9.50;2.53;;;10.50;99.90;;;;;;5072574;28;20204;-78
2021/03/13 12:35:04;;;;;;;8.50;2.27;;;10.50;99.90;;;;;;5072857;28;20184;-79
2021/03/13 12:37:30;;;;;;;12.87;3.50;;;10.50;38.50;;;;;;5072934;28;20176;-81
2021/03/13 12:39:56;;;;;;;8.50;2.80;;;10.50;99.90;;;;;;5073086;28;20172;-77
2021/03/13 12:42:23;;;;;;;7.10;2.00;;;10.30;1.00;;;;;;5071518;28;20628;-79
2021/03/13 12:44:49;;;;;;;8.60;2.83;;;9.80;99.90;;;;;;5072861;28;20168;-82
2021/03/13 12:47:14;;;;;;;10.77;2.60;;;9.30;1.00;;;;;;5073340;28;20168;-84
2021/03/13 12:49:40;;;;;;;11.10;2.30;;;9.00;1.00;;;;;;5062216;28;20672;-79
2021/03/13 12:52:06;;;;;;;11.63;3.20;;;9.10;1.00;;;;;;5075811;28;20192;-80
2021/03/13 12:54:32;;;;;;;15.37;3.10;;;9.50;1.00;;;;;;5073107;28;20212;-83
2021/03/13 12:56:58;;;;;;;12.60;3.07;;;9.70;1.00;;;;;;5072623;28;20182;-83
2021/03/13 12:59:24;;;;;;;8.90;2.40;;;10.00;1.00;;;;;;5072678;28;20200;-81
2021/03/13 13:01:49;;;;;;;9.30;2.80;;;10.50;1.00;;;;;;5073120;28;20213;-83
2021/03/13 13:04:15;;;;;;;9.13;2.87;;;10.70;1.00;;;;;;5072783;28;20241;-80